Time;durP1;ratioP1;P1;durP2;ratioP2;P2;SDS_P1;SDS_P2;PMS_P1;PMS_P2;Temp;Humidity;BMP_temperature;BMP_pressure;BME280_temperature;BME280_humidity;BME280_pressure;Samples;Min_cycle;Max_cycle;Signal;HPM_P1;HPM_P2
2022/06/03 00:00:03;;;;;;;11.23;7.75;;;;;;;18.00;72.11;99399.22;5032972;28;20469;-67
2022/06/03 00:02:36;;;;;;;14.95;7.65;;;;;;;17.96;72.32;99403.22;5016407;28;20054;-66
2022/06/03 00:05:12;;;;;;;12.80;8.13;;;;;;;17.86;74.04;99399.81;5033255;28;20463;-66
2022/06/03 00:08:07;;;;;;;12.00;8.55;;;;;;;17.87;73.29;99393.41;5044213;28;20051;-66
2022/06/03 00:10:51;;;;;;;10.82;8.02;;;;;;;17.86;73.67;99391.72;5036807;28;20047;-66
2022/06/03 00:13:34;;;;;;;9.38;8.32;;;;;;;17.78;73.72;99396.09;5036544;28;20048;-67
2022/06/03 00:16:08;;;;;;;12.85;8.68;;;;;;;17.82;74.20;99390.38;5019346;28;20055;-65
2022/06/03 00:18:50;;;;;;;14.50;9.10;;;;;;;17.82;73.25;99395.78;5053133;28;20050;-66
2022/06/03 00:21:43;;;;;;;9.85;8.23;;;;;;;17.81;73.38;99388.69;5036151;28;20052;-66
2022/06/03 00:24:37;;;;;;;15.13;8.18;;;;;;;17.75;73.84;99395.56;5052791;28;20518;-66
2022/06/03 00:27:40;;;;;;;14.95;9.30;;;;;;;17.74;73.48;99399.25;5008833;28;20523;-67
2022/06/03 00:30:23;;;;;;;11.40;7.82;;;;;;;17.70;73.45;99403.31;5005221;28;20063;-67
2022/06/03 00:32:51;;;;;;;13.07;8.95;;;;;;;17.74;73.43;99396.56;5036965;28;20055;-66
2022/06/03 00:35:40;;;;;;;15.25;8.95;;;;;;;17.75;73.83;99392.84;5105222;27;20046;-65
2022/06/03 00:38:22;;;;;;;11.82;8.65;;;;;;;17.74;73.74;99397.41;5115962;27;20135;-66
2022/06/03 00:41:09;;;;;;;10.90;8.10;;;;;;;17.73;73.25;99406.50;5115506;27;20519;-66
2022/06/03 00:44:18;;;;;;;15.30;9.00;;;;;;;17.88;73.11;99409.44;5081357;27;20038;-66
2022/06/03 00:47:05;;;;;;;14.57;9.43;;;;;;;17.83;73.12;99410.94;5098691;27;20615;-67
2022/06/03 00:50:02;;;;;;;10.60;7.88;;;;;;;17.72;73.59;99409.34;5117303;27;20046;-66
2022/06/03 00:52:45;;;;;;;10.98;7.95;;;;;;;17.67;74.08;99406.31;4979686;28;20052;-66
2022/06/03 00:55:28;;;;;;;14.23;8.52;;;;;;;17.68;74.08;99416.09;4979633;28;20049;-66
2022/06/03 00:58:15;;;;;;;13.02;8.05;;;;;;;17.74;74.03;99421.66;4997381;28;20051;-68
2022/06/03 01:01:01;;;;;;;9.73;7.72;;;;;;;17.84;73.62;99418.84;5013636;28;20047;-67
2022/06/03 01:04:03;;;;;;;13.75;8.68;;;;;;;17.96;73.26;99420.25;5014031;28;20052;-66
2022/06/03 01:06:51;;;;;;;12.48;8.20;;;;;;;17.92;73.45;99416.22;4996944;28;20120;-66
2022/06/03 01:09:38;;;;;;;10.52;7.93;;;;;;;17.83;73.46;99413.66;5012986;28;20430;-66
2022/06/03 01:12:53;;;;;;;14.07;8.23;;;;;;;17.77;73.86;99410.56;4995616;28;20160;-66
2022/06/03 01:15:56;;;;;;;17.00;8.00;;;;;;;17.77;73.70;99410.56;4934135;28;20062;-67
2022/06/03 01:18:37;;;;;;;9.38;7.45;;;;;;;17.76;73.76;99414.28;4919606;28;20109;-67
2022/06/03 01:21:18;;;;;;;16.50;8.20;;;;;;;17.75;74.16;99407.19;4921865;28;20065;-66
2022/06/03 01:24:12;;;;;;;9.65;7.28;;;;;;;17.67;74.72;99399.06;4921322;28;20042;-66
2022/06/03 01:26:53;;;;;;;12.07;8.27;;;;;;;17.61;75.02;99398.81;4938230;28;20117;-67
2022/06/03 01:29:49;;;;;;;14.82;8.45;;;;;;;17.63;74.56;99396.84;4998939;28;20068;-66
2022/06/03 01:32:53;;;;;;;13.13;9.00;;;;;;;17.74;74.22;99399.25;4959725;28;20050;-67
2022/06/03 01:35:30;;;;;;;12.27;9.07;;;;;;;17.70;74.45;99385.28;4975819;28;20157;-67
2022/06/03 01:38:12;;;;;;;16.67;9.15;;;;;;;17.71;74.72;99386.97;4975728;28;20049;-66
2022/06/03 01:40:42;;;;;;;17.65;8.55;;;;;;;17.66;74.57;99380.34;4987207;28;20446;-66
2022/06/03 01:43:16;;;;;;;11.32;8.95;;;;;;;17.63;75.18;99380.66;4995072;28;20053;-66
2022/06/03 01:45:56;;;;;;;11.05;8.45;;;;;;;17.60;75.20;99389.91;4995159;28;20050;-66
2022/06/03 01:48:52;;;;;;;11.23;8.95;;;;;;;17.57;75.47;99395.63;4978386;28;20049;-67
2022/06/03 01:51:28;;;;;;;12.13;8.10;;;;;;;17.59;75.02;99396.31;5008715;28;20041;-66
2022/06/03 01:54:15;;;;;;;11.20;7.97;;;;;;;17.64;75.09;99399.38;5018125;28;20048;-67
2022/06/03 01:56:45;;;;;;;11.68;9.07;;;;;;;17.63;75.04;99388.75;5034780;28;20036;-67
2022/06/03 01:59:40;;;;;;;14.80;8.57;;;;;;;17.67;75.67;99388.28;5017344;28;20041;-67
2022/06/03 02:02:52;;;;;;;14.77;8.63;;;;;;;17.65;75.69;99387.59;5034566;28;20075;-67
2022/06/03 02:06:11;;;;;;;11.15;8.27;;;;;;;17.65;75.57;99384.06;5026823;28;20086;-68
2022/06/03 02:08:48;;;;;;;11.60;8.43;;;;;;;17.60;75.10;99370.19;5027020;28;20099;-68
2022/06/03 02:11:48;;;;;;;10.88;7.40;;;;;;;17.55;75.32;99381.44;5050344;28;20052;-68
2022/06/03 02:14:19;;;;;;;11.23;7.72;;;;;;;17.51;75.32;99376.53;4994713;28;20144;-68
2022/06/03 02:16:49;;;;;;;16.80;8.32;;;;;;;17.50;75.46;99381.06;4995263;28;20062;-68
2022/06/03 02:19:23;;;;;;;10.38;7.55;;;;;;;17.51;75.88;99384.59;4994187;28;20049;-67
2022/06/03 02:22:29;;;;;;;11.57;8.17;;;;;;;17.55;75.64;99378.75;4994840;28;20119;-68
2022/06/03 02:24:54;;;;;;;10.85;7.75;;;;;;;17.54;75.43;99387.00;4955302;28;20058;-68
2022/06/03 02:27:21;;;;;;;14.18;8.10;;;;;;;17.57;75.63;99376.75;4955335;28;20052;-68
2022/06/03 02:32:48;;;;;;;11.95;7.03;;;;;;;17.76;75.80;99371.13;4938867;28;20476;-67
2022/06/03 02:35:52;;;;;;;8.13;6.97;;;;;;;17.92;75.37;99374.91;4939262;28;20473;-68
2022/06/03 02:38:47;;;;;;;10.52;7.70;;;;;;;18.03;75.19;99371.91;4920916;28;20061;-67
2022/06/03 02:41:30;;;;;;;;;;;;;;;18.27;73.63;99363.03;4904487;28;20542;-68
2022/06/03 02:44:30;;;;;;;11.07;7.47;;;;;;;18.28;73.68;99359.34;4912963;28;19918;-68
2022/06/03 02:47:18;;;;;;;14.50;8.90;;;;;;;18.48;72.98;99356.16;4934436;28;20069;-67
2022/06/03 02:50:04;;;;;;;9.45;7.60;;;;;;;18.50;72.48;99364.94;4954805;28;20050;-68
2022/06/03 02:52:53;;;;;;;16.30;7.90;;;;;;;18.58;72.54;99358.72;4938903;28;20050;-68
2022/06/03 02:55:37;;;;;;;10.40;6.65;;;;;;;18.67;72.54;99362.28;4922720;28;20112;-69
2022/06/03 02:58:28;;;;;;;14.85;7.90;;;;;;;18.80;72.37;99368.03;4939944;28;20058;-71
2022/06/03 03:01:05;;;;;;;9.25;6.55;;;;;;;18.94;71.48;99367.34;4953757;28;20461;-68
2022/06/03 03:03:30;;;;;;;10.85;6.60;;;;;;;19.04;71.13;99365.31;4997272;28;20056;-68
2022/06/03 03:06:19;;;;;;;13.50;8.00;;;;;;;19.12;71.04;99373.41;5013803;28;20037;-68
2022/06/03 03:09:11;;;;;;;9.45;6.82;;;;;;;19.22;70.33;99365.97;4983552;28;20048;-68
2022/06/03 03:12:29;;;;;;;10.02;7.40;;;;;;;19.28;70.59;99367.16;4999919;28;20052;-68
2022/06/03 03:15:08;;;;;;;9.88;7.40;;;;;;;19.06;70.89;99354.34;4993773;28;20048;-67
2022/06/03 03:17:56;;;;;;;11.13;7.97;;;;;;;18.99;71.77;99370.38;5016498;28;20209;-67
2022/06/03 03:20:39;;;;;;;12.60;7.07;;;;;;;19.08;71.23;99361.25;4999977;28;20106;-69
2022/06/03 03:23:41;;;;;;;11.30;7.60;;;;;;;19.22;70.77;99367.81;5032901;28;20049;-68
2022/06/03 03:26:20;;;;;;;11.20;7.55;;;;;;;19.25;70.32;99362.06;5032201;28;20049;-67
2022/06/03 03:29:07;;;;;;;14.95;7.68;;;;;;;19.34;70.46;99371.84;5037992;28;20052;-67
2022/06/03 03:32:13;;;;;;;12.70;7.38;;;;;;;19.52;69.70;99369.00;4999383;28;20191;-67
2022/06/03 03:35:02;;;;;;;17.90;8.52;;;;;;;19.39;69.66;99368.66;5016244;28;20250;-67
2022/06/03 03:37:58;;;;;;;10.38;7.47;;;;;;;19.56;69.54;99364.91;5032831;28;20053;-67
2022/06/03 03:41:27;;;;;;;12.63;8.10;;;;;;;19.58;68.97;99363.72;5033607;28;20044;-66
2022/06/03 03:44:15;;;;;;;11.27;7.15;;;;;;;19.70;68.99;99360.63;4938716;28;20448;-66
2022/06/03 03:46:46;;;;;;;12.55;7.40;;;;;;;19.83;68.79;99356.34;4935241;28;20053;-67
2022/06/03 03:49:48;;;;;;;10.77;6.90;;;;;;;20.01;68.40;99355.25;4925799;28;20050;-67
2022/06/03 03:53:12;;;;;;;12.35;8.13;;;;;;;20.22;67.48;99358.19;4957465;28;20050;-67
2022/06/03 03:56:04;;;;;;;17.17;7.63;;;;;;;20.26;67.11;99354.94;4915336;29;20065;-67
2022/06/03 03:58:58;;;;;;;12.65;6.95;;;;;;;20.24;67.01;99350.72;4915765;29;20062;-67
2022/06/03 04:01:44;;;;;;;10.73;8.07;;;;;;;20.23;67.02;99349.88;4918382;28;20046;-67
2022/06/03 04:04:14;;;;;;;9.63;7.43;;;;;;;20.28;66.96;99341.25;4902575;28;20054;-66
2022/06/03 04:07:07;;;;;;;11.85;7.65;;;;;;;20.42;66.63;99326.97;4934958;28;20663;-67
2022/06/03 04:09:34;;;;;;;14.43;7.55;;;;;;;20.43;66.16;99320.50;4934652;28;20452;-67
2022/06/03 04:12:29;;;;;;;11.05;7.45;;;;;;;20.49;66.57;99317.09;4918794;28;20514;-67
2022/06/03 04:15:08;;;;;;;13.73;6.95;;;;;;;20.66;66.11;99317.78;4956523;28;20041;-68
2022/06/03 04:17:54;;;;;;;12.75;7.95;;;;;;;20.84;65.78;99326.44;4974106;28;20049;-67
2022/06/03 04:20:43;;;;;;;11.02;7.15;;;;;;;21.01;65.32;99332.56;4959148;28;20046;-66
2022/06/03 04:23:31;;;;;;;10.82;7.00;;;;;;;21.06;65.16;99335.56;4962037;28;20104;-68
2022/06/03 04:25:55;;;;;;;16.92;9.23;;;;;;;21.04;64.94;99326.78;5008174;28;20043;-67
2022/06/03 04:28:49;;;;;;;12.13;8.00;;;;;;;21.28;64.24;99329.28;5085874;28;20054;-68
2022/06/03 04:31:35;;;;;;;13.82;8.10;;;;;;;21.41;63.92;99322.34;4975803;28;20426;-67
2022/06/03 04:34:11;;;;;;;12.05;7.47;;;;;;;21.58;63.85;99318.41;4992530;28;20491;-67
2022/06/03 04:36:51;;;;;;;10.93;7.68;;;;;;;21.90;62.95;99306.28;4992478;28;20053;-66
2022/06/03 04:39:27;;;;;;;9.32;7.15;;;;;;;22.23;61.85;99296.72;4992693;28;20047;-66
2022/06/03 04:42:25;;;;;;;10.15;7.60;;;;;;;22.48;61.23;99299.88;4976426;28;20088;-67
2022/06/03 04:45:17;;;;;;;10.45;7.63;;;;;;;22.60;60.49;99275.75;4976185;28;20049;-67
2022/06/03 04:48:13;;;;;;;9.45;7.53;;;;;;;22.81;60.34;99273.88;4992728;28;20053;-67
2022/06/03 04:50:59;;;;;;;11.75;7.22;;;;;;;23.20;59.78;99272.47;4992908;28;20131;-68
2022/06/03 04:54:16;;;;;;;9.38;7.22;;;;;;;23.57;58.57;99263.09;4977548;28;20152;-69
2022/06/03 04:56:46;;;;;;;10.48;7.53;;;;;;;23.60;57.17;99242.78;4918820;28;20189;-67
2022/06/03 04:59:32;;;;;;;10.25;7.63;;;;;;;23.62;56.85;99248.88;4902870;29;20179;-67
2022/06/03 05:02:22;;;;;;;15.30;8.38;;;;;;;23.68;57.00;99248.06;4902692;29;20051;-66
2022/06/03 05:05:17;;;;;;;15.88;8.02;;;;;;;23.83;57.04;99259.63;4919363;29;20047;-66
2022/06/03 05:08:03;;;;;;;12.90;8.48;;;;;;;23.80;56.58;99263.63;4954021;28;20102;-67
2022/06/03 05:10:46;;;;;;;10.45;7.53;;;;;;;23.97;56.07;99269.53;5016178;28;20048;-68
2022/06/03 05:13:29;;;;;;;10.55;7.75;;;;;;;24.20;55.51;99253.66;5015584;28;20530;-67
2022/06/03 05:16:35;;;;;;;11.57;8.40;;;;;;;24.53;55.12;99263.78;5015849;28;20041;-67
2022/06/03 05:19:00;;;;;;;11.02;7.60;;;;;;;24.76;54.03;99261.50;4976112;28;20061;-67
2022/06/03 05:21:46;;;;;;;12.95;8.02;;;;;;;25.37;52.98;99265.88;4976653;28;20108;-66
2022/06/03 05:24:23;;;;;;;12.13;7.75;;;;;;;25.85;51.72;99271.78;4977838;28;20087;-68
2022/06/03 05:27:05;;;;;;;13.25;7.18;;;;;;;26.04;51.16;99281.81;4977353;28;20060;-67
2022/06/03 05:29:43;;;;;;;11.05;8.25;;;;;;;25.23;51.90;99282.25;4976718;28;20065;-68
2022/06/03 05:32:10;;;;;;;11.90;8.30;;;;;;;24.80;53.35;99292.75;4967819;28;20049;-68
2022/06/03 05:34:56;;;;;;;11.70;8.18;;;;;;;24.42;54.43;99294.38;5075560;28;20094;-67
2022/06/03 05:37:39;;;;;;;11.07;8.77;;;;;;;24.21;54.88;99304.38;5077242;28;20040;-67
2022/06/03 05:40:34;;;;;;;12.13;9.23;;;;;;;23.96;55.90;99303.25;5058312;28;20054;-67
2022/06/03 05:43:19;;;;;;;9.93;8.27;;;;;;;23.68;56.87;99316.13;5075021;28;20051;-67
2022/06/03 05:45:47;;;;;;;12.32;9.02;;;;;;;23.38;57.04;99319.03;5074749;28;20070;-67
2022/06/03 05:48:23;;;;;;;12.80;9.38;;;;;;;23.25;57.60;99321.66;5040432;28;20086;-66
2022/06/03 05:51:00;;;;;;;15.60;10.15;;;;;;;22.97;58.57;99329.00;5057563;28;20118;-66
2022/06/03 05:53:38;;;;;;;16.40;8.95;;;;;;;22.66;59.70;99323.88;5040960;28;20389;-68
2022/06/03 05:56:41;;;;;;;15.73;9.30;;;;;;;22.68;59.49;99324.53;5071303;27;20058;-66
2022/06/03 05:59:31;;;;;;;13.27;9.18;;;;;;;22.28;60.52;99309.69;5097906;27;20535;-68
2022/06/03 06:02:25;;;;;;;13.32;9.40;;;;;;;22.02;62.14;99315.66;5079126;27;20047;-68
2022/06/03 06:05:09;;;;;;;;;;;;;;;22.00;61.36;99312.31;5079398;27;20064;-68
2022/06/03 06:07:41;;;;;;;13.70;10.30;;;;;;;21.58;63.22;99307.56;5097650;27;19922;-67
2022/06/03 06:10:34;;;;;;;9.65;8.60;;;;;;;21.40;63.92;99307.13;5061973;27;20070;-67
2022/06/03 06:13:13;;;;;;;13.25;9.32;;;;;;;21.23;65.03;99287.47;5045572;27;20043;-68
2022/06/03 06:16:02;;;;;;;20.48;11.32;;;;;;;21.14;65.91;99285.84;5104053;27;20041;-68
2022/06/03 06:18:38;;;;;;;12.27;9.60;;;;;;;21.21;65.98;99282.25;5100021;27;20572;-67
2022/06/03 06:21:18;;;;;;;14.10;11.45;;;;;;;21.36;64.77;99288.50;5099676;27;20057;-68
2022/06/03 06:24:14;;;;;;;18.00;11.60;;;;;;;21.22;65.54;99277.66;5100535;27;20419;-69
2022/06/03 06:26:45;;;;;;;18.63;11.52;;;;;;;21.09;66.04;99282.84;5014963;28;20049;-67
2022/06/03 06:29:12;;;;;;;23.65;11.13;;;;;;;21.03;66.21;99281.72;5013990;28;20057;-68
2022/06/03 06:31:38;;;;;;;16.75;11.20;;;;;;;21.00;66.50;99290.22;4997414;28;20041;-68
2022/06/03 06:34:33;;;;;;;22.85;12.90;;;;;;;20.94;67.54;99302.66;5013939;28;20056;-68
2022/06/03 06:37:34;;;;;;;21.88;13.82;;;;;;;20.85;67.99;99314.59;5013846;28;20045;-67
2022/06/03 06:40:16;;;;;;;19.98;13.60;;;;;;;20.64;68.63;99309.88;4964871;28;20067;-67
2022/06/03 06:42:59;;;;;;;13.73;12.13;;;;;;;20.47;69.17;99313.72;5020963;28;20040;-68
2022/06/03 06:45:36;;;;;;;25.20;14.63;;;;;;;20.40;70.38;99315.47;4996729;28;20043;-68
2022/06/03 06:48:16;;;;;;;14.70;9.82;;;;;;;20.14;70.53;99331.16;5032351;28;20041;-66
2022/06/03 06:50:46;;;;;;;27.17;12.90;;;;;;;19.58;72.81;99347.50;5029794;28;20543;-67
2022/06/03 06:53:20;;;;;;;15.18;9.00;;;;;;;19.35;74.74;99351.91;5026104;28;20462;-67
2022/06/03 06:56:09;;;;;;;17.85;9.45;;;;;;;19.03;76.78;99366.34;5007449;28;20075;-67
2022/06/03 06:58:43;;;;;;;9.85;6.95;;;;;;;18.70;77.34;99356.56;5009549;28;20124;-68
2022/06/03 07:01:11;;;;;;;11.32;8.40;;;;;;;18.51;78.63;99352.25;4991322;28;20047;-69
2022/06/03 07:03:42;;;;;;;13.07;9.05;;;;;;;18.46;78.95;99339.28;5079219;27;20062;-68
2022/06/03 07:06:17;;;;;;;9.65;7.85;;;;;;;18.42;79.18;99343.31;5123238;27;20089;-69
2022/06/03 07:08:44;;;;;;;13.07;8.15;;;;;;;18.31;79.75;99342.78;5098876;27;20045;-69
2022/06/03 07:11:25;;;;;;;23.83;10.45;;;;;;;18.29;79.71;99340.25;5116892;27;20055;-69
2022/06/03 07:14:03;;;;;;;14.27;8.57;;;;;;;18.17;80.06;99330.81;5099532;27;20519;-69
2022/06/03 07:19:50;;;;;;;9.98;7.90;;;;;;;18.14;80.70;99306.88;5081420;27;20035;-69
2022/06/03 07:22:22;;;;;;;10.10;7.20;;;;;;;18.12;81.05;99301.63;5118271;27;20170;-68
2022/06/03 07:25:15;;;;;;;11.85;7.55;;;;;;;18.18;81.19;99296.56;5104498;27;20042;-68
2022/06/03 07:27:42;;;;;;;15.70;8.82;;;;;;;18.22;81.31;99301.47;5099839;27;20063;-69
2022/06/03 07:30:09;;;;;;;10.30;7.03;;;;;;;18.30;81.29;99297.94;5122639;27;20038;-68
2022/06/03 07:32:41;;;;;;;11.00;7.57;;;;;;;18.49;81.82;99303.03;5111736;27;20038;-69
2022/06/03 07:35:24;;;;;;;10.27;7.75;;;;;;;18.80;81.57;99311.31;5094943;27;20042;-69
2022/06/03 07:37:57;;;;;;;11.95;8.13;;;;;;;19.08;81.11;99309.06;5115327;27;20135;-69
2022/06/03 07:40:42;;;;;;;12.32;8.25;;;;;;;19.41;80.49;99315.25;5127552;27;20042;-68
2022/06/03 07:43:23;;;;;;;16.65;8.93;;;;;;;19.73;79.93;99308.91;5100601;27;20049;-67
2022/06/03 07:46:05;;;;;;;10.68;7.93;;;;;;;20.14;78.41;99313.06;5117399;27;20053;-68
2022/06/03 07:48:33;;;;;;;13.20;8.05;;;;;;;20.47;76.81;99312.88;5097403;27;20631;-68
2022/06/03 07:50:59;;;;;;;12.98;7.70;;;;;;;20.57;74.04;99308.88;5116288;27;20049;-68
2022/06/03 07:53:50;;;;;;;11.95;7.38;;;;;;;20.55;72.15;99316.34;5081018;27;20502;-68
2022/06/03 07:56:22;;;;;;;11.15;7.78;;;;;;;20.51;73.76;99323.16;5081931;27;20400;-68
2022/06/03 07:58:51;;;;;;;11.45;7.60;;;;;;;20.62;73.84;99319.19;5081425;27;20175;-68
2022/06/03 08:01:29;;;;;;;17.77;9.10;;;;;;;20.85;73.66;99321.88;5116847;27;20087;-68
2022/06/03 08:03:54;;;;;;;16.33;8.27;;;;;;;20.90;72.21;99324.88;5116898;27;20050;-70
2022/06/03 08:12:00;;;;;;;9.47;6.97;;;;;;;20.79;71.68;99322.59;5115509;27;20051;-68
2022/06/03 08:14:27;;;;;;;12.63;8.68;;;;;;;20.63;71.89;99324.44;5116137;27;20091;-69
2022/06/03 08:16:51;;;;;;;11.50;8.25;;;;;;;20.36;71.66;99314.13;5097842;27;20042;-69
2022/06/03 08:19:23;;;;;;;11.65;7.93;;;;;;;20.13;71.55;99321.34;5116589;27;20049;-68
2022/06/03 08:21:56;;;;;;;11.05;8.60;;;;;;;19.97;73.30;99327.72;5116159;27;20133;-69
2022/06/03 08:24:25;;;;;;;14.05;8.52;;;;;;;19.88;73.77;99324.19;5116538;27;20068;-69
2022/06/03 08:26:56;;;;;;;12.60;8.50;;;;;;;19.93;73.28;99321.81;5118057;27;20062;-69
2022/06/03 08:29:44;;;;;;;13.13;8.45;;;;;;;20.06;72.26;99320.41;5106423;27;20038;-69
2022/06/03 08:32:21;;;;;;;11.55;8.57;;;;;;;20.06;72.32;99320.41;5101032;27;20049;-69
2022/06/03 08:34:54;;;;;;;12.20;9.18;;;;;;;20.09;72.52;99337.09;5119993;27;20046;-69
2022/06/03 08:37:25;;;;;;;32.93;18.00;;;;;;;20.17;72.78;99338.94;5119867;27;20511;-69
2022/06/03 08:39:53;;;;;;;21.35;11.18;;;;;;;20.23;72.00;99330.94;5119604;27;20683;-67
2022/06/03 08:42:21;;;;;;;11.00;8.20;;;;;;;20.26;70.82;99327.03;5100672;27;20041;-69
2022/06/03 08:45:01;;;;;;;15.30;9.45;;;;;;;20.22;70.21;99331.09;5119814;27;20046;-69
2022/06/03 08:47:38;;;;;;;10.95;7.85;;;;;;;20.43;69.47;99331.34;5120008;27;20131;-68
2022/06/03 08:50:20;;;;;;;16.48;8.27;;;;;;;20.78;69.42;99331.75;5101223;27;20085;-67
2022/06/03 08:52:48;;;;;;;14.02;9.18;;;;;;;21.05;68.03;99342.00;5100964;27;20069;-69
2022/06/03 08:55:36;;;;;;;13.10;9.88;;;;;;;21.88;65.33;99346.38;5100718;27;20416;-68
2022/06/03 08:58:14;;;;;;;17.33;10.68;;;;;;;22.23;64.88;99355.63;5103482;27;20050;-68
2022/06/03 09:00:50;;;;;;;14.07;8.75;;;;;;;22.21;63.88;99360.41;5118965;27;20130;-68
2022/06/03 09:03:18;;;;;;;18.80;10.98;;;;;;;21.92;65.06;99369.38;5100688;27;20038;-68
2022/06/03 09:05:55;;;;;;;15.05;8.75;;;;;;;21.49;64.35;99371.91;5100881;27;20042;-68
2022/06/03 09:08:50;;;;;;;18.13;11.38;;;;;;;21.27;66.31;99370.97;5100377;27;20164;-68
2022/06/03 09:11:40;;;;;;;14.38;9.93;;;;;;;20.87;66.26;99365.91;5104832;27;20077;-67
2022/06/03 09:14:08;;;;;;;11.60;8.77;;;;;;;20.64;67.06;99369.47;5107901;27;20042;-67
2022/06/03 09:16:35;;;;;;;17.90;12.00;;;;;;;20.45;67.49;99374.47;5127944;27;20045;-67
2022/06/03 09:19:17;;;;;;;11.38;8.32;;;;;;;20.40;66.96;99361.50;5101939;27;20049;-68
2022/06/03 09:21:46;;;;;;;12.95;9.30;;;;;;;20.34;67.45;99366.75;5119004;27;20046;-67
2022/06/03 09:24:31;;;;;;;11.82;8.55;;;;;;;20.29;67.08;99370.84;5118600;27;20125;-68
2022/06/03 09:26:59;;;;;;;11.13;8.98;;;;;;;20.14;68.46;99371.75;5121332;27;20050;-68
2022/06/03 09:29:24;;;;;;;20.38;12.50;;;;;;;20.06;68.67;99380.78;5121628;27;20046;-68
2022/06/03 09:31:54;;;;;;;13.85;10.15;;;;;;;20.00;69.23;99372.50;5118418;27;20395;-70
2022/06/03 09:34:31;;;;;;;9.63;8.48;;;;;;;19.86;69.05;99374.91;5118993;27;20042;-69
2022/06/03 09:36:56;;;;;;;11.00;8.48;;;;;;;19.79;68.92;99376.66;5118326;27;20031;-69
2022/06/03 09:39:22;;;;;;;11.32;7.95;;;;;;;19.75;69.19;99388.84;5119716;27;20068;-69
2022/06/03 09:41:53;;;;;;;10.82;8.57;;;;;;;19.69;69.15;99377.88;5103586;27;20042;-68
2022/06/03 09:44:21;;;;;;;16.27;9.30;;;;;;;19.66;69.16;99389.88;5085020;27;20070;-68
2022/06/03 09:46:58;;;;;;;10.48;8.98;;;;;;;20.01;68.72;99390.44;5102903;27;20042;-67
2022/06/03 09:49:23;;;;;;;17.08;8.85;;;;;;;20.31;67.84;99389.63;5102226;27;20049;-67
2022/06/03 09:51:56;;;;;;;15.20;10.52;;;;;;;20.46;66.71;99387.84;5119707;27;20038;-68
2022/06/03 09:54:35;;;;;;;11.25;9.23;;;;;;;20.54;65.74;99395.09;5101367;27;20131;-70
2022/06/03 09:57:26;;;;;;;13.82;10.60;;;;;;;20.72;65.62;99397.50;5101287;27;20050;-69
2022/06/03 10:00:03;;;;;;;13.60;10.25;;;;;;;20.83;64.53;99408.75;5080628;27;20043;-70
2022/06/03 10:02:37;;;;;;;15.40;9.85;;;;;;;20.94;64.50;99400.19;5101798;27;20035;-69
2022/06/03 10:05:04;;;;;;;10.60;9.07;;;;;;;21.12;64.06;99404.44;5079239;27;20106;-69
2022/06/03 10:07:30;;;;;;;12.55;8.30;;;;;;;21.13;63.03;99398.84;5079352;27;20069;-68
2022/06/03 10:12:50;;;;;;;10.50;9.25;;;;;;;21.21;63.58;99390.69;5079231;27;20047;-68
2022/06/03 10:15:37;;;;;;;9.75;7.88;;;;;;;21.26;63.38;99401.81;5079073;27;20047;-69
2022/06/03 10:18:05;;;;;;;11.60;8.60;;;;;;;21.37;63.10;99398.66;5097612;27;20043;-70
2022/06/03 10:20:30;;;;;;;12.85;8.05;;;;;;;21.45;62.95;99388.75;5079234;27;20047;-73
2022/06/03 10:22:55;;;;;;;9.75;7.55;;;;;;;21.52;62.69;99389.69;5078574;27;20039;-73
2022/06/03 10:25:20;;;;;;;13.07;8.15;;;;;;;21.52;62.48;99387.00;5079265;27;20126;-73
2022/06/03 10:27:45;;;;;;;10.98;8.38;;;;;;;21.31;62.44;99391.28;5084748;27;20135;-71
2022/06/03 10:30:11;;;;;;;9.27;7.45;;;;;;;21.12;62.90;99391.75;5099461;27;20038;-75
2022/06/03 10:32:36;;;;;;;12.63;8.32;;;;;;;20.97;62.76;99391.72;5117316;27;20031;-73
2022/06/03 10:35:13;;;;;;;14.02;10.27;;;;;;;20.95;62.17;99409.19;5117208;27;20129;-71
2022/06/03 10:37:50;;;;;;;10.90;7.43;;;;;;;20.89;62.46;99396.34;5117871;27;20049;-74
2022/06/03 10:40:15;;;;;;;7.53;6.13;;;;;;;21.02;62.25;99391.16;5082079;27;20505;-72
2022/06/03 10:42:44;;;;;;;12.93;6.63;;;;;;;21.44;60.97;99406.06;5117525;27;20030;-72
2022/06/03 10:45:09;;;;;;;8.43;6.88;;;;;;;21.90;59.62;99410.28;5118505;27;20042;-73
2022/06/03 10:47:39;;;;;;;9.75;6.30;;;;;;;22.46;59.04;99413.31;5118068;27;20087;-72
2022/06/03 10:50:09;;;;;;;9.57;5.82;;;;;;;22.98;55.79;99409.53;5117253;27;20558;-74
2022/06/03 11:01:13;;;;;;;11.82;6.05;;;;;;;23.29;53.39;99437.19;5099298;27;20042;-75
2022/06/03 11:03:41;;;;;;;8.73;6.07;;;;;;;23.23;53.19;99438.00;5099107;27;20107;-75
2022/06/03 11:06:12;;;;;;;6.55;5.25;;;;;;;23.18;53.16;99459.50;5098803;27;20186;-74
2022/06/03 11:08:52;;;;;;;6.55;5.47;;;;;;;23.35;52.59;99455.47;5099391;27;20046;-74
2022/06/03 11:11:39;;;;;;;6.80;5.88;;;;;;;23.36;51.71;99465.31;5098263;27;20051;-74
2022/06/03 11:14:33;;;;;;;9.40;5.63;;;;;;;23.12;51.43;99480.16;5081814;27;20081;-75
2022/06/03 11:17:03;;;;;;;10.95;6.22;;;;;;;22.89;53.23;99486.81;5097767;27;20062;-72
2022/06/03 11:19:35;;;;;;;13.85;6.72;;;;;;;22.87;52.88;99486.16;5088747;27;20131;-69
2022/06/03 11:22:16;;;;;;;8.00;6.38;;;;;;;23.02;52.55;99493.25;5103838;27;20037;-69
2022/06/03 11:24:41;;;;;;;8.23;5.85;;;;;;;22.92;51.74;99498.13;5088171;27;20051;-69
2022/06/03 11:27:12;;;;;;;10.73;6.22;;;;;;;22.73;50.94;99507.72;5086985;27;20043;-69
2022/06/03 11:29:39;;;;;;;14.18;6.32;;;;;;;22.57;51.92;99517.97;5084142;27;20035;-73
2022/06/03 11:32:08;;;;;;;7.40;5.93;;;;;;;22.43;52.34;99538.69;5107226;27;20785;-69
2022/06/03 11:34:42;;;;;;;9.50;6.65;;;;;;;22.25;52.42;99539.03;5105576;27;20524;-71
2022/06/03 11:37:26;;;;;;;8.23;6.85;;;;;;;22.18;52.20;99553.56;5071821;27;20027;-69
2022/06/03 11:39:59;;;;;;;7.85;5.90;;;;;;;22.00;52.49;99554.78;5089145;27;20070;-69
2022/06/03 11:42:39;;;;;;;7.18;6.00;;;;;;;22.13;52.16;99569.56;5111647;27;20035;-69
2022/06/03 11:45:13;;;;;;;6.53;5.15;;;;;;;22.17;50.17;99563.56;5073616;27;20106;-68
2022/06/03 11:47:49;;;;;;;7.65;5.65;;;;;;;22.13;50.53;99567.69;5061207;27;20043;-69
2022/06/03 11:50:15;;;;;;;9.50;6.00;;;;;;;21.97;51.04;99563.25;5065470;27;20069;-68
2022/06/03 11:52:40;;;;;;;8.25;5.10;;;;;;;21.76;51.72;99560.41;5078008;27;20046;-71
2022/06/03 11:55:05;;;;;;;9.00;6.40;;;;;;;21.42;52.51;99562.72;5100183;27;20043;-70
2022/06/03 11:57:30;;;;;;;7.43;5.47;;;;;;;21.08;53.16;99558.50;5086836;27;20058;-71
2022/06/03 12:00:05;;;;;;;6.38;4.97;;;;;;;20.93;54.16;99565.69;5096498;27;20030;-74
2022/06/03 12:02:52;;;;;;;7.68;6.07;;;;;;;20.76;55.01;99572.22;5075937;27;20551;-73
2022/06/03 12:05:24;;;;;;;8.15;4.78;;;;;;;20.47;54.52;99564.72;5108795;27;20942;-72
2022/06/03 12:07:54;;;;;;;8.30;5.00;;;;;;;20.46;54.21;99573.84;5111696;27;20051;-74
2022/06/03 12:10:22;;;;;;;4.70;4.20;;;;;;;20.57;53.44;99573.47;5112173;27;20049;-74
2022/06/03 12:15:40;;;;;;;5.10;4.50;;;;;;;20.74;52.91;99576.97;5113888;27;20117;-74
2022/06/03 12:18:11;;;;;;;9.98;5.05;;;;;;;20.62;53.35;99585.50;5094947;27;20034;-72
2022/06/03 12:20:49;;;;;;;4.85;3.90;;;;;;;20.36;53.62;99587.59;5094854;27;20095;-72
2022/06/03 12:23:14;;;;;;;9.73;4.97;;;;;;;20.11;54.22;99584.06;5079042;27;20053;-73
2022/06/03 12:25:57;;;;;;;6.30;4.15;;;;;;;20.02;54.57;99590.50;5077496;27;20035;-71
2022/06/03 12:28:31;;;;;;;9.10;4.60;;;;;;;19.84;55.21;99593.41;5078724;27;20046;-73
2022/06/03 12:31:07;;;;;;;15.45;4.53;;;;;;;19.75;55.54;99597.13;5055241;27;20496;-71
2022/06/03 12:33:57;;;;;;;9.77;5.50;;;;;;;19.80;55.26;99592.06;5080893;27;20594;-73
2022/06/03 12:36:52;;;;;;;4.75;4.20;;;;;;;19.68;55.69;99596.09;5094610;27;20438;-72
2022/06/03 12:39:28;;;;;;;4.10;3.67;;;;;;;19.45;55.53;99601.31;5094709;27;20395;-75
2022/06/03 12:42:11;;;;;;;11.15;4.25;;;;;;;19.24;56.30;99609.03;5098878;27;20034;-74
2022/06/03 12:44:42;;;;;;;11.13;5.03;;;;;;;19.08;57.31;99622.50;5101870;27;20092;-72
2022/06/03 12:47:32;;;;;;;7.20;4.78;;;;;;;19.01;57.79;99632.28;5101154;27;20030;-73
2022/06/03 12:50:16;;;;;;;9.38;4.80;;;;;;;18.88;57.79;99634.59;5083224;28;20072;-74
2022/06/03 12:52:42;;;;;;;;;;;;;;;19.31;57.82;99634.38;5064390;27;20035;-72